createdAt,value
2024-02-14T00:01:10.661Z,97542.13
2024-02-14T00:03:15.090Z,97545.16
2024-02-14T00:05:18.193Z,97552.91
2024-02-14T00:07:21.210Z,97557.19
2024-02-14T00:09:24.070Z,97557.84
2024-02-14T00:11:27.021Z,97554.00
2024-02-14T00:13:30.030Z,97551.97
2024-02-14T00:15:32.057Z,97558.91
2024-02-14T00:17:35.960Z,97567.53
2024-02-14T00:19:40.813Z,97572.81
2024-02-14T00:21:43.754Z,97563.19
2024-02-14T00:23:46.922Z,97563.19
2024-02-14T00:25:49.883Z,97555.25
2024-02-14T00:27:52.709Z,97551.63
2024-02-14T00:29:56.089Z,97541.88
2024-02-14T00:31:59.162Z,97543.69
2024-02-14T00:34:02.381Z,97542.72
2024-02-14T00:36:07.510Z,97547.31
2024-02-14T00:38:10.785Z,97539.38
2024-02-14T00:40:13.389Z,97550.47
2024-02-14T00:42:16.251Z,97549.66
2024-02-14T00:44:19.953Z,97545.34
2024-02-14T00:46:22.953Z,97546.34
2024-02-14T00:48:26.237Z,97536.41
2024-02-14T00:50:29.295Z,97539.88
2024-02-14T00:52:33.514Z,97536.22
2024-02-14T00:54:36.706Z,97534.38
2024-02-14T00:56:39.634Z,97532.56
2024-02-14T00:58:42.149Z,97535.41
2024-02-14T01:00:45.072Z,97540.69
2024-02-14T01:02:48.041Z,97542.34
2024-02-14T01:04:50.923Z,97547.63
2024-02-14T01:06:52.961Z,97548.81
2024-02-14T01:08:57.320Z,97551.28
2024-02-14T01:11:00.421Z,97559.44
2024-02-14T01:13:03.398Z,97555.13
2024-02-14T01:15:07.384Z,97546.34
2024-02-14T01:17:10.420Z,97546.34
2024-02-14T01:19:14.055Z,97555.78
2024-02-14T01:21:17.077Z,97556.78
2024-02-14T01:23:21.069Z,97557.91
2024-02-14T01:25:25.374Z,97553.63
2024-02-14T01:27:29.548Z,97551.97
2024-02-14T01:29:32.445Z,97539.56
2024-02-14T01:31:36.198Z,97527.13
2024-02-14T01:33:39.190Z,97526.81
2024-02-14T01:35:43.013Z,97525.81
2024-02-14T01:37:46.390Z,97526.44
2024-02-14T01:39:49.354Z,97528.09
2024-02-14T01:41:53.684Z,97530.53
2024-02-14T01:43:56.577Z,97533.00
2024-02-14T01:46:07.251Z,97540.94
2024-02-14T01:48:12.011Z,97537.28
2024-02-14T01:50:15.262Z,97542.59
2024-02-14T01:52:18.247Z,97553.38
2024-02-14T01:54:21.491Z,97550.91
2024-02-14T01:56:24.754Z,97558.22
2024-02-14T01:58:29.450Z,97554.94
2024-02-14T02:00:33.412Z,97560.88
2024-02-14T02:02:38.011Z,97557.41
2024-02-14T02:04:40.864Z,97554.75
2024-02-14T02:06:44.094Z,97556.59
2024-02-14T02:08:47.355Z,97557.59
2024-02-14T02:10:50.510Z,97558.41
2024-02-14T02:12:53.731Z,97560.25
2024-02-14T02:14:58.437Z,97559.44
2024-02-14T02:17:01.803Z,97557.59
2024-02-14T02:19:04.829Z,97546.81
2024-02-14T02:21:08.933Z,97554.56
2024-02-14T02:23:15.709Z,97554.56
2024-02-14T02:25:18.744Z,97553.56
2024-02-14T02:27:21.726Z,97551.75
2024-02-14T02:29:24.690Z,97544.44
2024-02-14T02:31:27.697Z,97541.59
2024-02-14T02:33:30.726Z,97538.94
2024-02-14T02:35:32.753Z,97531.00
2024-02-14T02:37:35.728Z,97540.78
2024-02-14T02:39:40.633Z,97535.47
2024-02-14T02:41:43.674Z,97532.66
2024-02-14T02:43:46.555Z,97529.00
2024-02-14T02:45:49.434Z,97519.41
2024-02-14T02:47:53.637Z,97509.16
2024-02-14T02:49:57.958Z,97509.34
2024-02-14T02:51:59.898Z,97519.94
2024-02-14T02:54:03.884Z,97530.34
2024-02-14T02:56:09.511Z,97536.66
2024-02-14T02:58:12.458Z,97532.38
2024-02-14T03:00:15.232Z,97519.94
2024-02-14T03:02:20.014Z,97527.06
2024-02-14T03:04:24.691Z,97529.72
2024-02-14T03:06:31.966Z,97522.78
2024-02-14T03:08:35.583Z,97530.72
2024-02-14T03:10:39.457Z,97536.22
2024-02-14T03:12:43.765Z,97533.75
2024-02-14T03:14:48.059Z,97545.16
2024-02-14T03:16:51.328Z,97540.88
2024-02-14T03:18:55.096Z,97537.56
2024-02-14T03:20:58.210Z,97542.00
2024-02-14T03:23:01.128Z,97538.53
2024-02-14T03:25:04.362Z,97530.78
2024-02-14T03:27:07.506Z,97529.97
2024-02-14T03:29:11.739Z,97531.78
2024-02-14T03:31:16.629Z,97538.72
2024-02-14T03:33:20.158Z,97557.28
2024-02-14T03:35:23.482Z,97555.63
2024-02-14T03:37:26.642Z,97554.00
2024-02-14T03:39:29.719Z,97552.34
2024-02-14T03:41:32.624Z,97552.34
2024-02-14T03:43:35.397Z,97539.75
2024-02-14T03:45:39.609Z,97530.78
2024-02-14T03:47:43.315Z,97529.97
2024-02-14T03:49:46.381Z,97529.13
2024-02-14T03:51:49.970Z,97531.78
2024-02-14T03:53:53.839Z,97528.31
2024-02-14T03:55:56.766Z,97537.28
2024-02-14T03:57:59.723Z,97534.81
2024-02-14T04:00:02.667Z,97527.06
2024-02-14T04:02:11.225Z,97528.69
2024-02-14T04:04:14.505Z,97538.47
2024-02-14T04:06:17.884Z,97528.50
2024-02-14T04:08:20.914Z,97538.09
2024-02-14T04:10:23.987Z,97550.69
2024-02-14T04:12:27.056Z,97553.34
2024-02-14T04:14:29.989Z,97549.44
2024-02-14T04:16:32.934Z,97545.47
2024-02-14T04:18:37.465Z,97553.09
2024-02-14T04:20:40.417Z,97553.91
2024-02-14T04:22:44.643Z,97557.19
2024-02-14T04:24:47.845Z,97554.53
2024-02-14T04:26:51.148Z,97553.72
2024-02-14T04:28:54.060Z,97551.91
2024-02-14T04:30:57.662Z,97550.06
2024-02-14T04:33:00.686Z,97562.31
2024-02-14T04:35:06.674Z,97559.66
2024-02-14T04:37:13.574Z,97562.31
2024-02-14T04:39:16.601Z,97551.91
2024-02-14T04:41:19.880Z,97555.19
2024-02-14T04:43:22.773Z,97551.72
2024-02-14T04:45:25.638Z,97560.66
2024-02-14T04:47:29.924Z,97559.66
2024-02-14T04:49:33.931Z,97563.94
2024-02-14T04:51:38.492Z,97570.06
2024-02-14T04:53:41.393Z,97569.06
2024-02-14T04:55:44.581Z,97559.09
2024-02-14T04:57:47.466Z,97560.94
2024-02-14T04:59:51.448Z,97571.34
2024-02-14T05:01:55.285Z,97576.63
2024-02-14T05:03:58.245Z,97570.53
2024-02-14T05:06:03.958Z,97586.41
2024-02-14T05:08:09.300Z,97584.59
2024-02-14T05:10:11.589Z,97580.94
2024-02-14T05:12:14.735Z,97575.63
2024-02-14T05:14:17.953Z,97576.44
2024-02-14T05:16:20.863Z,97578.13
2024-02-14T05:18:24.544Z,97574.50
2024-02-14T05:20:27.543Z,97575.31
2024-02-14T05:22:30.416Z,97577.16
2024-02-14T05:24:38.516Z,97585.09
2024-02-14T05:26:41.512Z,97585.09
2024-02-14T05:28:44.522Z,97576.31
2024-02-14T05:30:47.578Z,97575.63
2024-02-14T05:32:50.537Z,97577.47
2024-02-14T05:34:52.820Z,97584.13
2024-02-14T05:36:55.754Z,97591.44
2024-02-14T05:38:57.672Z,97584.50
2024-02-14T05:41:02.586Z,97588.16
2024-02-14T05:43:04.835Z,97593.44
2024-02-14T05:45:10.919Z,97585.13
2024-02-14T05:47:14.009Z,97586.97
2024-02-14T05:49:17.022Z,97587.78
2024-02-14T05:51:20.024Z,97575.72
2024-02-14T05:53:22.920Z,97582.22
2024-02-14T05:55:26.629Z,97588.50
2024-02-14T05:57:30.862Z,97588.16
2024-02-14T05:59:33.896Z,97585.50
2024-02-14T06:01:36.879Z,97585.69
2024-02-14T06:03:39.708Z,97586.84
2024-02-14T06:05:42.908Z,97588.69
2024-02-14T06:07:47.189Z,97582.56
2024-02-14T06:09:51.630Z,97593.63
2024-02-14T06:11:54.884Z,97578.09
2024-02-14T06:13:59.177Z,97582.09
2024-02-14T06:16:01.995Z,97589.59
2024-02-14T06:18:05.212Z,97597.19
2024-02-14T06:20:10.124Z,97594.16
2024-02-14T06:22:13.901Z,97601.09
2024-02-14T06:24:16.876Z,97598.44
2024-02-14T06:26:19.903Z,97599.09
2024-02-14T06:28:22.767Z,97599.75
2024-02-14T06:30:29.650Z,97593.28
2024-02-14T06:32:35.373Z,97598.19
2024-02-14T06:34:38.681Z,97609.63
2024-02-14T06:36:41.908Z,97606.16
2024-02-14T06:38:44.526Z,97614.28
2024-02-14T06:40:47.513Z,97615.09
2024-02-14T06:42:51.684Z,97615.72
2024-02-14T06:44:55.026Z,97604.50
2024-02-14T06:46:59.218Z,97605.97
2024-02-14T06:49:01.226Z,97604.13
2024-02-14T06:51:04.407Z,97602.13
2024-02-14T06:53:08.065Z,97597.66
2024-02-14T06:55:10.979Z,97595.69
2024-02-14T06:57:13.933Z,97599.16
2024-02-14T06:59:16.816Z,97601.81
2024-02-14T07:01:22.968Z,97595.50
2024-02-14T07:03:27.270Z,97590.41
2024-02-14T07:05:30.741Z,97596.31
2024-02-14T07:07:33.789Z,97589.19
2024-02-14T07:09:36.795Z,97588.38
2024-02-14T07:11:39.863Z,97589.84
2024-02-14T07:13:42.717Z,97589.66
2024-02-14T07:15:46.497Z,97591.47
2024-02-14T07:17:49.493Z,97586.38
2024-02-14T07:19:53.854Z,97603.91
2024-02-14T07:21:56.813Z,97611.66
2024-02-14T07:23:59.714Z,97609.03
2024-02-14T07:26:03.138Z,97600.06
2024-02-14T07:28:07.246Z,97600.88
2024-02-14T07:30:11.459Z,97602.72
2024-02-14T07:32:14.378Z,97608.84
2024-02-14T07:34:16.558Z,97602.72
2024-02-14T07:36:21.025Z,97589.66
2024-02-14T07:38:24.216Z,97591.28
2024-02-14T07:40:28.259Z,97591.09
2024-02-14T07:42:31.163Z,97597.41
2024-02-14T07:44:34.299Z,97599.88
2024-02-14T07:46:37.308Z,97600.88
2024-02-14T07:48:41.464Z,97603.53
2024-02-14T07:50:44.784Z,97605.19
2024-02-14T07:52:50.053Z,97603.38
2024-02-14T07:54:54.939Z,97605.19
2024-02-14T07:56:57.995Z,97608.69
2024-02-14T07:59:01.253Z,97614.81
2024-02-14T08:01:05.224Z,97616.63
2024-02-14T08:03:09.381Z,97619.91
2024-02-14T08:05:12.759Z,97619.91
2024-02-14T08:07:15.859Z,97617.44
2024-02-14T08:09:20.122Z,97629.69
2024-02-14T08:11:22.954Z,97625.22
2024-02-14T08:13:25.811Z,97624.03
2024-02-14T08:15:27.902Z,97624.03
2024-02-14T08:17:30.877Z,97631.66
2024-02-14T08:19:33.859Z,97636.16
2024-02-14T08:21:37.135Z,97640.28
2024-02-14T08:23:40.861Z,97649.50
2024-02-14T08:25:45.358Z,97646.69
2024-02-14T08:27:48.747Z,97644.84
2024-02-14T08:29:51.650Z,97648.13
2024-02-14T08:31:54.907Z,97641.69
2024-02-14T08:33:58.024Z,97638.03
2024-02-14T08:36:01.240Z,97637.00
2024-02-14T08:38:04.411Z,97634.16
2024-02-14T08:40:08.402Z,97632.97
2024-02-14T08:42:12.909Z,97619.72
2024-02-14T08:44:16.031Z,97618.72
2024-02-14T08:46:19.967Z,97612.59
2024-02-14T08:48:22.970Z,97612.16
2024-02-14T08:50:25.890Z,97611.97
2024-02-14T08:52:29.569Z,97619.53
2024-02-14T08:54:33.832Z,97614.25
2024-02-14T08:56:37.104Z,97617.91
2024-02-14T08:58:42.729Z,97620.56
2024-02-14T09:00:45.679Z,97617.25
2024-02-14T09:02:48.115Z,97612.78
2024-02-14T09:04:52.164Z,97614.63
2024-02-14T09:06:55.168Z,97615.25
2024-02-14T09:08:58.481Z,97627.50
2024-02-14T09:11:01.382Z,97617.19
2024-02-14T09:13:05.256Z,97626.41
2024-02-14T09:15:10.731Z,97631.34
2024-02-14T09:17:13.646Z,97633.34
2024-02-14T09:19:18.044Z,97634.09
2024-02-14T09:21:21.113Z,97626.84
2024-02-14T09:23:24.193Z,97626.66
2024-02-14T09:25:27.381Z,97625.47
2024-02-14T09:27:30.335Z,97630.44
2024-02-14T09:29:33.336Z,97624.75
2024-02-14T09:31:37.859Z,97626.84
2024-02-14T09:33:41.540Z,97616.09
2024-02-14T09:35:47.087Z,97615.44
2024-02-14T09:37:50.735Z,97615.25
2024-02-14T09:39:53.630Z,97613.88
2024-02-14T09:42:02.320Z,97612.69
2024-02-14T09:44:05.636Z,97603.09
2024-02-14T09:46:09.635Z,97599.44
2024-02-14T09:48:15.236Z,97598.22
2024-02-14T09:50:18.896Z,97597.22
2024-02-14T09:52:23.571Z,97595.59
2024-02-14T09:54:27.832Z,97593.13
2024-02-14T09:56:32.172Z,97601.72
2024-02-14T09:58:37.590Z,97602.19
2024-02-14T10:00:42.019Z,97607.00
2024-02-14T10:02:45.442Z,97616.34
2024-02-14T10:04:48.737Z,97615.91
2024-02-14T10:06:51.843Z,97632.63
2024-02-14T10:09:02.901Z,97626.75
2024-02-14T10:11:07.624Z,97629.88
2024-02-14T10:13:10.920Z,97619.25
2024-02-14T10:15:14.469Z,97620.94
2024-02-14T10:17:19.785Z,97617.28
2024-02-14T10:19:23.029Z,97620.75
2024-02-14T10:21:29.364Z,97606.91
2024-02-14T10:23:33.649Z,97605.53
2024-02-14T10:25:37.514Z,97615.78
2024-02-14T10:27:41.788Z,97612.94
2024-02-14T10:29:45.480Z,97622.19
2024-02-14T10:31:48.546Z,97626.94
2024-02-14T10:33:52.655Z,97634.91
2024-02-14T10:36:00.137Z,97627.94
2024-02-14T10:38:07.637Z,97626.75
2024-02-14T10:40:11.033Z,97622.91
2024-02-14T10:42:14.637Z,97619.69
2024-02-14T10:44:17.507Z,97623.44
2024-02-14T10:46:23.564Z,97621.59
2024-02-14T10:48:29.146Z,97632.03
2024-02-14T10:50:35.885Z,97628.34
2024-02-14T10:52:42.477Z,97625.50
2024-02-14T10:54:53.753Z,97627.63
2024-02-14T10:57:02.593Z,97635.22
2024-02-14T10:59:08.462Z,97634.19
2024-02-14T11:01:12.241Z,97646.25
2024-02-14T11:03:16.622Z,97646.88
2024-02-14T11:05:24.977Z,97644.44
2024-02-14T11:07:30.818Z,97644.44
2024-02-14T11:09:35.246Z,97646.06
2024-02-14T11:11:40.423Z,97646.88
2024-02-14T11:13:42.474Z,97652.03
2024-02-14T11:15:47.782Z,97644.69
2024-02-14T11:17:53.420Z,97649.81
2024-02-14T11:19:57.127Z,97646.97
2024-02-14T11:22:01.595Z,97653.94
2024-02-14T11:24:07.000Z,97652.28
2024-02-14T11:26:17.543Z,97646.97
2024-02-14T11:28:27.079Z,97655.19
2024-02-14T11:30:33.484Z,97641.91
2024-02-14T11:32:36.415Z,97640.75
2024-02-14T11:34:40.359Z,97637.91
2024-02-14T11:36:45.262Z,97633.22
2024-02-14T11:38:48.712Z,97629.75
2024-02-14T11:40:53.317Z,97638.13
2024-02-14T11:42:57.246Z,97636.13
2024-02-14T11:45:02.119Z,97632.47
2024-02-14T11:47:05.976Z,97626.16
2024-02-14T11:49:10.462Z,97622.47
2024-02-14T11:51:12.939Z,97616.16
2024-02-14T11:53:19.643Z,97616.81
2024-02-14T11:55:30.425Z,97622.75
2024-02-14T11:57:33.357Z,97613.78
2024-02-14T11:59:37.495Z,97616.06
2024-02-14T12:01:42.125Z,97608.72
2024-02-14T12:03:45.235Z,97612.22
2024-02-14T12:05:49.634Z,97598.94
2024-02-14T12:07:52.808Z,97601.19
2024-02-14T12:09:57.409Z,97591.19
2024-02-14T12:12:00.307Z,97596.31
2024-02-14T12:14:03.998Z,97591.81
2024-02-14T12:16:09.676Z,97597.97
2024-02-14T12:18:15.033Z,97598.78
2024-02-14T12:20:18.145Z,97597.59
2024-02-14T12:22:21.019Z,97603.34
2024-02-14T12:24:24.585Z,97598.84
2024-02-14T12:26:26.956Z,97603.16
2024-02-14T12:28:32.123Z,97610.09
2024-02-14T12:30:53.642Z,97609.66
2024-02-14T12:33:09.292Z,97604.34
2024-02-14T12:35:14.215Z,97601.28
2024-02-14T12:37:17.363Z,97600.63
2024-02-14T12:39:21.791Z,97600.00
2024-02-14T12:41:27.281Z,97584.44
2024-02-14T12:43:30.660Z,97580.16
2024-02-14T12:45:32.778Z,97578.50
2024-02-14T12:47:36.225Z,97573.59
2024-02-14T12:49:39.425Z,97569.09
2024-02-14T12:51:43.703Z,97571.75
2024-02-14T12:53:46.679Z,97570.53
2024-02-14T12:55:49.781Z,97569.13
2024-02-14T12:57:52.694Z,97569.75
2024-02-14T12:59:56.221Z,97563.44
2024-02-14T13:01:58.438Z,97562.44
2024-02-14T13:04:03.516Z,97558.78
2024-02-14T13:06:07.593Z,97552.00
2024-02-14T13:08:15.072Z,97556.13
2024-02-14T13:10:18.143Z,97569.41
2024-02-14T13:12:24.433Z,97564.25
2024-02-14T13:14:27.737Z,97565.66
2024-02-14T13:16:29.712Z,97559.53
2024-02-14T13:18:32.907Z,97561.56
2024-02-14T13:20:36.814Z,97559.91
2024-02-14T13:22:40.206Z,97547.66
2024-02-14T13:24:48.014Z,97559.09
2024-02-14T13:26:51.300Z,97561.94
2024-02-14T13:28:55.419Z,97539.88
2024-02-14T13:30:58.380Z,97545.00
2024-02-14T13:33:00.498Z,97539.69
2024-02-14T13:35:03.874Z,97533.38
2024-02-14T13:37:06.927Z,97532.53
2024-02-14T13:39:10.097Z,97537.88
2024-02-14T13:41:15.076Z,97537.66
2024-02-14T13:43:18.850Z,97532.97
2024-02-14T13:45:23.264Z,97531.13
2024-02-14T13:47:25.711Z,97521.34
2024-02-14T13:49:29.283Z,97531.13
2024-02-14T13:51:33.655Z,97530.94
2024-02-14T13:53:36.619Z,97523.59
2024-02-14T13:55:40.094Z,97515.63
2024-02-14T13:57:44.450Z,97510.97
2024-02-14T13:59:47.933Z,97517.09
2024-02-14T14:01:51.124Z,97517.94
2024-02-14T14:03:55.769Z,97518.75
2024-02-14T14:05:58.914Z,97524.88
2024-02-14T14:08:01.642Z,97528.53
2024-02-14T14:10:04.965Z,97522.41
2024-02-14T14:12:08.427Z,97520.59
2024-02-14T14:14:17.092Z,97522.41
2024-02-14T14:16:22.633Z,97523.25
2024-02-14T14:18:25.656Z,97525.91
2024-02-14T14:20:28.939Z,97518.28
2024-02-14T14:22:31.012Z,97521.75
2024-02-14T14:24:33.945Z,97526.25
2024-02-14T14:26:37.160Z,97526.25
2024-02-14T14:28:40.120Z,97523.59
2024-02-14T14:30:45.358Z,97512.16
2024-02-14T14:32:48.427Z,97512.16
2024-02-14T14:34:52.296Z,97520.94
2024-02-14T14:36:55.732Z,97528.53
2024-02-14T14:38:59.107Z,97526.09
2024-02-14T14:41:02.329Z,97522.41
2024-02-14T14:43:05.606Z,97521.41
2024-02-14T14:45:09.281Z,97524.69
2024-02-14T14:47:14.254Z,97519.16
2024-02-14T14:49:17.912Z,97513.84
2024-02-14T14:51:20.971Z,97503.84
2024-02-14T14:53:24.714Z,97501.81
2024-02-14T14:55:29.851Z,97502.47
2024-02-14T14:57:33.013Z,97498.81
2024-02-14T14:59:36.536Z,97494.50
2024-02-14T15:01:39.601Z,97497.78
2024-02-14T15:03:43.876Z,97498.59
2024-02-14T15:05:45.914Z,97496.75
2024-02-14T15:07:48.920Z,97500.25
2024-02-14T15:09:51.937Z,97490.22
2024-02-14T15:11:55.124Z,97487.38
2024-02-14T15:13:58.042Z,97487.38
2024-02-14T15:16:04.345Z,97484.72
2024-02-14T15:18:07.939Z,97485.34
2024-02-14T15:20:13.389Z,97492.28
2024-02-14T15:22:17.032Z,97497.59
2024-02-14T15:24:21.586Z,97495.97
2024-02-14T15:26:25.700Z,97491.47
2024-02-14T15:28:28.633Z,97492.28
2024-02-14T15:30:49.108Z,97492.28
2024-02-14T15:33:10.980Z,97495.16
2024-02-14T15:35:17.600Z,97486.16
2024-02-14T15:37:21.004Z,97494.13
2024-02-14T15:39:23.138Z,97506.59
2024-02-14T15:41:26.049Z,97504.97
2024-02-14T15:43:29.946Z,97505.97
2024-02-14T15:45:32.125Z,97502.69
2024-02-14T15:47:35.141Z,97502.91
2024-02-14T15:49:38.797Z,97496.75
2024-02-14T15:51:43.354Z,97489.81
2024-02-14T15:53:46.784Z,97495.94
2024-02-14T15:55:48.830Z,97493.50
2024-02-14T15:57:52.484Z,97499.63
2024-02-14T15:59:55.423Z,97503.28
2024-02-14T16:01:58.358Z,97514.75
2024-02-14T16:04:01.286Z,97507.78
2024-02-14T16:06:04.607Z,97510.44
2024-02-14T16:08:08.388Z,97505.13
2024-02-14T16:10:11.920Z,97502.47
2024-02-14T16:12:15.762Z,97497.16
2024-02-14T16:14:20.057Z,97495.31
2024-02-14T16:16:23.036Z,97497.16
2024-02-14T16:18:26.968Z,97497.16
2024-02-14T16:20:29.962Z,97494.31
2024-02-14T16:22:32.876Z,97493.50
2024-02-14T16:24:37.570Z,97490.63
2024-02-14T16:26:40.554Z,97486.97
2024-02-14T16:28:43.787Z,97490.63
2024-02-14T16:30:47.132Z,97484.09
2024-02-14T16:32:49.189Z,97480.44
2024-02-14T16:34:52.165Z,97484.72
2024-02-14T16:36:56.047Z,97482.06
2024-02-14T16:38:59.177Z,97477.56
2024-02-14T16:41:03.749Z,97477.56
2024-02-14T16:43:06.717Z,97479.41
2024-02-14T16:45:10.121Z,97480.03
2024-02-14T16:47:13.656Z,97477.38
2024-02-14T16:49:18.771Z,97485.34
2024-02-14T16:51:21.879Z,97483.72
2024-02-14T16:53:24.862Z,97481.25
2024-02-14T16:55:28.057Z,97482.25
2024-02-14T16:57:32.444Z,97493.09
2024-02-14T16:59:35.335Z,97490.84
2024-02-14T17:01:38.478Z,97492.84
2024-02-14T17:03:49.415Z,97490.56
2024-02-14T17:05:59.983Z,97492.59
2024-02-14T17:08:03.110Z,97491.38
2024-02-14T17:10:06.792Z,97499.53
2024-02-14T17:12:10.629Z,97495.41
2024-02-14T17:14:15.555Z,97495.19
2024-02-14T17:16:18.625Z,97495.19
2024-02-14T17:18:23.356Z,97499.88
2024-02-14T17:20:26.313Z,97512.53
2024-02-14T17:22:31.698Z,97515.53
2024-02-14T17:24:35.681Z,97522.88
2024-02-14T17:26:38.896Z,97527.53
2024-02-14T17:28:41.937Z,97527.09
2024-02-14T17:30:47.685Z,97522.78
2024-02-14T17:32:51.991Z,97523.78
2024-02-14T17:34:55.001Z,97522.97
2024-02-14T17:36:57.868Z,97524.00
2024-02-14T17:39:00.891Z,97520.50
2024-02-14T17:41:04.176Z,97528.66
2024-02-14T17:43:07.164Z,97520.09
2024-02-14T17:45:11.212Z,97519.47
2024-02-14T17:47:15.515Z,97520.47
2024-02-14T17:49:18.624Z,97528.44
2024-02-14T17:51:21.717Z,97526.59
2024-02-14T17:53:28.175Z,97527.41
2024-02-14T17:55:31.088Z,97530.69
2024-02-14T17:57:34.201Z,97522.53
2024-02-14T17:59:37.331Z,97532.34
2024-02-14T18:01:40.189Z,97541.31
2024-02-14T18:03:44.778Z,97543.16
2024-02-14T18:05:48.116Z,97550.09
2024-02-14T18:07:51.029Z,97557.06
2024-02-14T18:09:53.896Z,97554.19
2024-02-14T18:11:56.840Z,97563.00
2024-02-14T18:13:59.695Z,97555.03
2024-02-14T18:16:02.715Z,97549.72
2024-02-14T18:18:06.815Z,97554.81
2024-02-14T18:20:12.002Z,97549.53
2024-02-14T18:22:14.939Z,97553.19
2024-02-14T18:24:18.878Z,97554.19
2024-02-14T18:26:22.661Z,97555.22
2024-02-14T18:28:25.594Z,97558.47
2024-02-14T18:30:29.818Z,97556.63
2024-02-14T18:32:32.795Z,97551.31
2024-02-14T18:34:34.925Z,97547.63
2024-02-14T18:36:40.224Z,97550.94
2024-02-14T18:38:43.259Z,97543.97
2024-02-14T18:40:47.114Z,97550.31
2024-02-14T18:42:49.981Z,97547.00
2024-02-14T18:44:52.882Z,97539.06
2024-02-14T18:46:55.765Z,97542.53
2024-02-14T18:48:59.101Z,97539.69
2024-02-14T18:51:03.061Z,97534.38
2024-02-14T18:53:08.461Z,97534.38
2024-02-14T18:55:12.160Z,97535.81
2024-02-14T18:57:15.555Z,97533.34
2024-02-14T18:59:18.758Z,97525.38
2024-02-14T19:01:26.117Z,97532.34
2024-02-14T19:03:29.284Z,97532.72
2024-02-14T19:05:32.532Z,97535.19
2024-02-14T19:07:35.376Z,97543.34
2024-02-14T19:09:39.625Z,97537.22
2024-02-14T19:11:42.456Z,97539.88
2024-02-14T19:13:46.111Z,97528.44
2024-02-14T19:15:49.132Z,97533.94
2024-02-14T19:17:52.818Z,97536.75
2024-02-14T19:19:55.938Z,97524.69
2024-02-14T19:21:58.845Z,97518.97
2024-02-14T19:24:01.815Z,97519.59
2024-02-14T19:26:07.084Z,97511.63
2024-02-14T19:28:10.555Z,97507.31
2024-02-14T19:30:13.776Z,97512.63
2024-02-14T19:32:16.646Z,97501.19
2024-02-14T19:34:18.720Z,97513.66
2024-02-14T19:36:24.850Z,97517.13
2024-02-14T19:38:27.840Z,97514.47
2024-02-14T19:40:30.723Z,97518.97
2024-02-14T19:42:34.928Z,97523.63
2024-02-14T19:44:37.808Z,97516.69
2024-02-14T19:46:41.037Z,97516.69
2024-02-14T19:48:44.507Z,97518.53
2024-02-14T19:50:47.600Z,97512.56
2024-02-14T19:52:50.468Z,97514.41
2024-02-14T19:54:53.621Z,97514.59
2024-02-14T19:56:56.471Z,97506.81
2024-02-14T19:59:01.034Z,97506.19
2024-02-14T20:01:04.541Z,97496.59
2024-02-14T20:03:08.035Z,97495.78
2024-02-14T20:05:12.901Z,97494.97
2024-02-14T20:07:16.569Z,97498.63
2024-02-14T20:09:21.032Z,97503.28
2024-02-14T20:11:25.489Z,97501.63
2024-02-14T20:13:28.502Z,97501.00
2024-02-14T20:15:32.707Z,97498.53
2024-02-14T20:17:34.864Z,97502.22
2024-02-14T20:19:38.827Z,97503.41
2024-02-14T20:21:41.918Z,97494.81
2024-02-14T20:23:45.161Z,97503.16
2024-02-14T20:25:48.026Z,97497.22
2024-02-14T20:27:50.935Z,97507.81
2024-02-14T20:29:53.894Z,97497.59
2024-02-14T20:31:58.810Z,97495.13
2024-02-14T20:34:01.311Z,97502.44
2024-02-14T20:36:05.004Z,97496.31
2024-02-14T20:38:10.719Z,97500.81
2024-02-14T20:40:14.602Z,97496.69
2024-02-14T20:42:17.523Z,97493.41
2024-02-14T20:44:20.929Z,97497.09
2024-02-14T20:46:24.816Z,97496.06
2024-02-14T20:48:29.811Z,97490.78
2024-02-14T20:50:32.798Z,97497.91
2024-02-14T20:52:35.945Z,97500.75
2024-02-14T20:54:38.954Z,97493.81
2024-02-14T20:56:43.326Z,97492.16
2024-02-14T20:58:56.765Z,97493.34
2024-02-14T21:01:05.049Z,97497.81
2024-02-14T21:03:07.018Z,97498.63
2024-02-14T21:05:11.465Z,97494.34
2024-02-14T21:07:15.963Z,97495.34
2024-02-14T21:09:19.022Z,97499.66
2024-02-14T21:11:22.012Z,97500.66
2024-02-14T21:13:24.945Z,97494.53
2024-02-14T21:15:26.880Z,97497.19
2024-02-14T21:17:30.288Z,97489.44
2024-02-14T21:19:32.353Z,97488.59
2024-02-14T21:21:37.594Z,97488.81
2024-02-14T21:23:41.829Z,97485.97
2024-02-14T21:25:44.749Z,97495.56
2024-02-14T21:27:48.265Z,97485.97
2024-02-14T21:29:51.920Z,97490.06
2024-02-14T21:31:54.797Z,97488.22
2024-02-14T21:33:57.800Z,97487.41
2024-02-14T21:36:01.892Z,97482.91
2024-02-14T21:38:06.717Z,97480.28
2024-02-14T21:40:11.864Z,97487.88
2024-02-14T21:42:14.741Z,97483.38
2024-02-14T21:44:17.637Z,97484.00
2024-02-14T21:46:20.515Z,97485.03
2024-02-14T21:48:23.689Z,97477.88
2024-02-14T21:50:26.893Z,97467.28
2024-02-14T21:52:30.561Z,97466.47
2024-02-14T21:54:34.804Z,97458.69
2024-02-14T21:56:37.697Z,97461.97
2024-02-14T21:58:41.262Z,97465.66
2024-02-14T22:00:46.089Z,97465.81
2024-02-14T22:02:51.146Z,97464.97
2024-02-14T22:04:54.623Z,97468.47
2024-02-14T22:06:57.708Z,97466.81
2024-02-14T22:09:00.820Z,97456.22
2024-02-14T22:11:05.399Z,97458.03
2024-02-14T22:13:08.250Z,97453.75
2024-02-14T22:15:11.017Z,97455.78
2024-02-14T22:17:16.729Z,97452.31
2024-02-14T22:19:20.593Z,97457.81
2024-02-14T22:21:23.849Z,97460.44
2024-02-14T22:23:26.559Z,97454.13
2024-02-14T22:25:29.431Z,97451.47
2024-02-14T22:27:35.048Z,97448.84
2024-02-14T22:29:39.156Z,97456.78
2024-02-14T22:31:42.089Z,97461.47
2024-02-14T22:33:44.557Z,97472.88
2024-02-14T22:35:48.689Z,97465.13
2024-02-14T22:37:52.450Z,97461.47
2024-02-14T22:39:55.490Z,97468.78
2024-02-14T22:41:58.373Z,97465.47
2024-02-14T22:44:02.737Z,97471.78
2024-02-14T22:46:06.684Z,97467.69
2024-02-14T22:48:10.505Z,97465.03
2024-02-14T22:50:13.460Z,97464.03
2024-02-14T22:52:16.299Z,97472.81
2024-02-14T22:54:20.052Z,97462.41
2024-02-14T22:56:21.961Z,97462.19
2024-02-14T22:58:25.978Z,97468.31
2024-02-14T23:00:30.373Z,97459.75
2024-02-14T23:02:33.819Z,97461.38
2024-02-14T23:04:39.288Z,97466.50
2024-02-14T23:06:42.863Z,97468.94
2024-02-14T23:08:46.642Z,97463.66
2024-02-14T23:10:50.086Z,97465.47
2024-02-14T23:12:52.990Z,97470.16
2024-02-14T23:14:56.145Z,97470.16
2024-02-14T23:17:01.107Z,97461.19
2024-02-14T23:19:05.042Z,97463.84
2024-02-14T23:21:08.461Z,97457.91
2024-02-14T23:23:11.402Z,97461.38
2024-02-14T23:25:14.359Z,97459.56
2024-02-14T23:27:17.539Z,97465.66
2024-02-14T23:29:20.702Z,97459.75
2024-02-14T23:31:24.538Z,97460.56
2024-02-14T23:33:29.053Z,97457.72
2024-02-14T23:35:31.027Z,97465.88
2024-02-14T23:37:34.580Z,97468.13
2024-02-14T23:39:39.321Z,97461.19
2024-02-14T23:41:42.262Z,97459.56
2024-02-14T23:43:45.350Z,97458.53
2024-02-14T23:45:48.433Z,97462.19
2024-02-14T23:47:51.220Z,97455.25
2024-02-14T23:49:54.577Z,97452.78
2024-02-14T23:51:57.452Z,97467.06
2024-02-14T23:54:00.332Z,97459.31
2024-02-14T23:56:05.623Z,97455.22
2024-02-14T23:58:08.695Z,97464.13
